sensor_id;sensor_type;location;lat;lon;timestamp;P1;durP1;ratioP1;P2;durP2;ratioP2
10387;SDS011;5240;51.128;4.566;2022-10-23T00:00:54;11.13;;;5.10;;
10387;SDS011;5240;51.128;4.566;2022-10-23T00:03:23;13.52;;;5.93;;
10387;SDS011;5240;51.128;4.566;2022-10-23T00:05:50;8.52;;;5.35;;
10387;SDS011;5240;51.128;4.566;2022-10-23T00:08:17;18.52;;;5.85;;
10387;SDS011;5240;51.128;4.566;2022-10-23T00:10:44;10.85;;;5.72;;
10387;SDS011;5240;51.128;4.566;2022-10-23T00:13:11;13.52;;;5.15;;
10387;SDS011;5240;51.128;4.566;2022-10-23T00:15:38;10.98;;;5.85;;
10387;SDS011;5240;51.128;4.566;2022-10-23T00:18:05;12.57;;;5.70;;
10387;SDS011;5240;51.128;4.566;2022-10-23T00:20:33;12.27;;;5.22;;
10387;SDS011;5240;51.128;4.566;2022-10-23T00:23:00;13.82;;;5.20;;
10387;SDS011;5240;51.128;4.566;2022-10-23T00:25:27;8.82;;;5.70;;
10387;SDS011;5240;51.128;4.566;2022-10-23T00:27:54;12.10;;;5.47;;
10387;SDS011;5240;51.128;4.566;2022-10-23T00:30:21;9.68;;;5.72;;
10387;SDS011;5240;51.128;4.566;2022-10-23T00:32:48;12.02;;;5.30;;
10387;SDS011;5240;51.128;4.566;2022-10-23T00:35:15;10.73;;;5.15;;
10387;SDS011;5240;51.128;4.566;2022-10-23T00:37:43;14.07;;;5.68;;
10387;SDS011;5240;51.128;4.566;2022-10-23T00:40:10;11.57;;;5.35;;
10387;SDS011;5240;51.128;4.566;2022-10-23T00:42:38;8.65;;;5.40;;
10387;SDS011;5240;51.128;4.566;2022-10-23T00:47:51;11.35;;;5.93;;
10387;SDS011;5240;51.128;4.566;2022-10-23T00:50:19;14.93;;;5.93;;
10387;SDS011;5240;51.128;4.566;2022-10-23T00:52:51;12.38;;;5.53;;
10387;SDS011;5240;51.128;4.566;2022-10-23T00:55:21;11.18;;;5.18;;
10387;SDS011;5240;51.128;4.566;2022-10-23T00:57:51;11.00;;;5.28;;
10387;SDS011;5240;51.128;4.566;2022-10-23T01:00:19;10.60;;;5.90;;
10387;SDS011;5240;51.128;4.566;2022-10-23T01:02:47;7.90;;;5.30;;
10387;SDS011;5240;51.128;4.566;2022-10-23T01:05:15;9.55;;;5.07;;
10387;SDS011;5240;51.128;4.566;2022-10-23T01:07:45;10.18;;;4.80;;
10387;SDS011;5240;51.128;4.566;2022-10-23T01:10:21;10.35;;;4.95;;
10387;SDS011;5240;51.128;4.566;2022-10-23T01:12:59;10.10;;;5.05;;
10387;SDS011;5240;51.128;4.566;2022-10-23T01:15:33;8.48;;;5.13;;
10387;SDS011;5240;51.128;4.566;2022-10-23T01:18:07;13.02;;;5.03;;
10387;SDS011;5240;51.128;4.566;2022-10-23T01:20:39;13.35;;;5.25;;
10387;SDS011;5240;51.128;4.566;2022-10-23T01:26:21;10.43;;;5.43;;
10387;SDS011;5240;51.128;4.566;2022-10-23T01:29:02;9.25;;;4.75;;
10387;SDS011;5240;51.128;4.566;2022-10-23T01:31:34;10.45;;;4.80;;
10387;SDS011;5240;51.128;4.566;2022-10-23T01:34:06;8.95;;;4.90;;
10387;SDS011;5240;51.128;4.566;2022-10-23T01:36:33;10.43;;;4.57;;
10387;SDS011;5240;51.128;4.566;2022-10-23T01:39:03;7.38;;;4.50;;
10387;SDS011;5240;51.128;4.566;2022-10-23T01:41:34;12.40;;;4.30;;
10387;SDS011;5240;51.128;4.566;2022-10-23T01:44:08;11.10;;;4.85;;
10387;SDS011;5240;51.128;4.566;2022-10-23T01:46:38;9.10;;;4.97;;
10387;SDS011;5240;51.128;4.566;2022-10-23T01:49:08;10.30;;;4.90;;
10387;SDS011;5240;51.128;4.566;2022-10-23T01:51:38;8.82;;;4.65;;
10387;SDS011;5240;51.128;4.566;2022-10-23T01:54:08;11.45;;;5.45;;
10387;SDS011;5240;51.128;4.566;2022-10-23T01:56:38;8.82;;;4.63;;
10387;SDS011;5240;51.128;4.566;2022-10-23T01:59:11;7.30;;;4.65;;
10387;SDS011;5240;51.128;4.566;2022-10-23T02:01:42;6.70;;;4.13;;
10387;SDS011;5240;51.128;4.566;2022-10-23T02:04:13;7.35;;;4.68;;
10387;SDS011;5240;51.128;4.566;2022-10-23T02:06:44;9.80;;;4.78;;
10387;SDS011;5240;51.128;4.566;2022-10-23T02:09:11;9.68;;;4.50;;
10387;SDS011;5240;51.128;4.566;2022-10-23T02:11:41;9.38;;;4.50;;
10387;SDS011;5240;51.128;4.566;2022-10-23T02:14:19;12.63;;;4.80;;
10387;SDS011;5240;51.128;4.566;2022-10-23T02:16:54;12.38;;;4.45;;
10387;SDS011;5240;51.128;4.566;2022-10-23T02:19:30;9.45;;;4.45;;
10387;SDS011;5240;51.128;4.566;2022-10-23T02:22:06;9.10;;;4.57;;
10387;SDS011;5240;51.128;4.566;2022-10-23T02:24:38;8.07;;;4.47;;
10387;SDS011;5240;51.128;4.566;2022-10-23T02:27:10;10.70;;;4.50;;
10387;SDS011;5240;51.128;4.566;2022-10-23T02:29:44;9.90;;;4.68;;
10387;SDS011;5240;51.128;4.566;2022-10-23T02:32:13;14.27;;;4.57;;
10387;SDS011;5240;51.128;4.566;2022-10-23T02:34:43;8.57;;;4.50;;
10387;SDS011;5240;51.128;4.566;2022-10-23T02:37:10;11.80;;;4.40;;
10387;SDS011;5240;51.128;4.566;2022-10-23T02:39:37;10.93;;;4.35;;
10387;SDS011;5240;51.128;4.566;2022-10-23T02:42:05;12.25;;;4.03;;
10387;SDS011;5240;51.128;4.566;2022-10-23T02:44:41;8.90;;;4.43;;
10387;SDS011;5240;51.128;4.566;2022-10-23T02:47:26;8.73;;;4.15;;
10387;SDS011;5240;51.128;4.566;2022-10-23T02:50:02;6.50;;;4.38;;
10387;SDS011;5240;51.128;4.566;2022-10-23T02:52:35;11.25;;;4.03;;
10387;SDS011;5240;51.128;4.566;2022-10-23T02:55:12;9.77;;;4.30;;
10387;SDS011;5240;51.128;4.566;2022-10-23T02:57:45;8.73;;;4.32;;
10387;SDS011;5240;51.128;4.566;2022-10-23T03:00:20;7.10;;;4.00;;
10387;SDS011;5240;51.128;4.566;2022-10-23T03:02:49;9.35;;;4.05;;
10387;SDS011;5240;51.128;4.566;2022-10-23T03:05:22;5.78;;;3.97;;
10387;SDS011;5240;51.128;4.566;2022-10-23T03:07:51;8.23;;;4.03;;
10387;SDS011;5240;51.128;4.566;2022-10-23T03:10:18;11.02;;;4.40;;
10387;SDS011;5240;51.128;4.566;2022-10-23T03:12:45;8.00;;;3.88;;
10387;SDS011;5240;51.128;4.566;2022-10-23T03:15:13;10.98;;;4.25;;
10387;SDS011;5240;51.128;4.566;2022-10-23T03:17:42;6.75;;;3.90;;
10387;SDS011;5240;51.128;4.566;2022-10-23T03:20:10;9.77;;;3.97;;
10387;SDS011;5240;51.128;4.566;2022-10-23T03:22:37;7.40;;;3.88;;
10387;SDS011;5240;51.128;4.566;2022-10-23T03:25:05;8.95;;;4.20;;
10387;SDS011;5240;51.128;4.566;2022-10-23T03:27:32;7.93;;;3.75;;
10387;SDS011;5240;51.128;4.566;2022-10-23T03:29:59;13.15;;;3.95;;
10387;SDS011;5240;51.128;4.566;2022-10-23T03:32:26;7.93;;;4.10;;
10387;SDS011;5240;51.128;4.566;2022-10-23T03:34:55;8.50;;;4.05;;
10387;SDS011;5240;51.128;4.566;2022-10-23T03:37:22;7.20;;;4.00;;
10387;SDS011;5240;51.128;4.566;2022-10-23T03:39:49;8.93;;;3.78;;
10387;SDS011;5240;51.128;4.566;2022-10-23T03:42:16;9.15;;;3.67;;
10387;SDS011;5240;51.128;4.566;2022-10-23T03:44:43;12.60;;;4.03;;
10387;SDS011;5240;51.128;4.566;2022-10-23T03:47:10;9.75;;;4.20;;
10387;SDS011;5240;51.128;4.566;2022-10-23T03:49:37;8.30;;;3.70;;
10387;SDS011;5240;51.128;4.566;2022-10-23T03:52:06;10.32;;;3.85;;
10387;SDS011;5240;51.128;4.566;2022-10-23T03:54:33;7.18;;;3.92;;
10387;SDS011;5240;51.128;4.566;2022-10-23T03:57:01;7.07;;;3.60;;
10387;SDS011;5240;51.128;4.566;2022-10-23T03:59:28;10.57;;;4.10;;
10387;SDS011;5240;51.128;4.566;2022-10-23T04:01:55;6.60;;;3.28;;
10387;SDS011;5240;51.128;4.566;2022-10-23T04:04:22;10.38;;;3.90;;
10387;SDS011;5240;51.128;4.566;2022-10-23T04:06:49;8.65;;;4.15;;
10387;SDS011;5240;51.128;4.566;2022-10-23T04:09:17;7.65;;;3.60;;
10387;SDS011;5240;51.128;4.566;2022-10-23T04:11:44;6.78;;;3.35;;
10387;SDS011;5240;51.128;4.566;2022-10-23T04:14:11;7.72;;;3.70;;
10387;SDS011;5240;51.128;4.566;2022-10-23T04:16:38;12.80;;;3.72;;
10387;SDS011;5240;51.128;4.566;2022-10-23T04:19:05;9.13;;;3.53;;
10387;SDS011;5240;51.128;4.566;2022-10-23T04:21:33;7.28;;;3.78;;
10387;SDS011;5240;51.128;4.566;2022-10-23T04:24:00;6.20;;;3.67;;
10387;SDS011;5240;51.128;4.566;2022-10-23T04:26:28;8.00;;;3.92;;
10387;SDS011;5240;51.128;4.566;2022-10-23T04:28:55;5.47;;;3.50;;
10387;SDS011;5240;51.128;4.566;2022-10-23T04:31:22;9.80;;;4.28;;
10387;SDS011;5240;51.128;4.566;2022-10-23T04:33:49;7.50;;;3.75;;
10387;SDS011;5240;51.128;4.566;2022-10-23T04:36:16;8.40;;;3.85;;
10387;SDS011;5240;51.128;4.566;2022-10-23T04:38:43;12.25;;;4.45;;
10387;SDS011;5240;51.128;4.566;2022-10-23T04:41:10;7.22;;;3.72;;
10387;SDS011;5240;51.128;4.566;2022-10-23T04:43:38;9.23;;;3.70;;
10387;SDS011;5240;51.128;4.566;2022-10-23T04:46:05;6.03;;;3.50;;
10387;SDS011;5240;51.128;4.566;2022-10-23T04:48:32;6.28;;;3.25;;
10387;SDS011;5240;51.128;4.566;2022-10-23T04:51:00;6.82;;;3.67;;
10387;SDS011;5240;51.128;4.566;2022-10-23T04:53:28;8.85;;;3.70;;
10387;SDS011;5240;51.128;4.566;2022-10-23T04:55:57;8.35;;;3.88;;
10387;SDS011;5240;51.128;4.566;2022-10-23T04:58:24;7.57;;;3.90;;
10387;SDS011;5240;51.128;4.566;2022-10-23T05:00:55;6.15;;;4.00;;
10387;SDS011;5240;51.128;4.566;2022-10-23T05:03:22;8.05;;;3.83;;
10387;SDS011;5240;51.128;4.566;2022-10-23T05:05:51;6.07;;;3.67;;
10387;SDS011;5240;51.128;4.566;2022-10-23T05:08:19;7.05;;;3.50;;
10387;SDS011;5240;51.128;4.566;2022-10-23T05:10:47;9.50;;;4.30;;
10387;SDS011;5240;51.128;4.566;2022-10-23T05:13:14;6.53;;;3.92;;
10387;SDS011;5240;51.128;4.566;2022-10-23T05:15:43;5.22;;;3.35;;
10387;SDS011;5240;51.128;4.566;2022-10-23T05:18:15;7.15;;;3.60;;
10387;SDS011;5240;51.128;4.566;2022-10-23T05:20:45;10.57;;;4.30;;
10387;SDS011;5240;51.128;4.566;2022-10-23T05:23:15;13.05;;;4.13;;
10387;SDS011;5240;51.128;4.566;2022-10-23T05:25:45;6.28;;;3.63;;
10387;SDS011;5240;51.128;4.566;2022-10-23T05:28:12;5.78;;;3.88;;
10387;SDS011;5240;51.128;4.566;2022-10-23T05:30:39;8.30;;;3.97;;
10387;SDS011;5240;51.128;4.566;2022-10-23T05:33:08;5.88;;;3.63;;
10387;SDS011;5240;51.128;4.566;2022-10-23T05:35:37;6.20;;;3.70;;
10387;SDS011;5240;51.128;4.566;2022-10-23T05:38:06;6.97;;;3.83;;
10387;SDS011;5240;51.128;4.566;2022-10-23T05:40:34;6.57;;;3.67;;
10387;SDS011;5240;51.128;4.566;2022-10-23T05:43:01;9.25;;;3.67;;
10387;SDS011;5240;51.128;4.566;2022-10-23T05:45:28;8.48;;;3.80;;
10387;SDS011;5240;51.128;4.566;2022-10-23T05:47:55;7.85;;;3.97;;
10387;SDS011;5240;51.128;4.566;2022-10-23T05:50:22;7.90;;;3.25;;
10387;SDS011;5240;51.128;4.566;2022-10-23T05:52:50;5.65;;;3.47;;
10387;SDS011;5240;51.128;4.566;2022-10-23T05:55:17;6.22;;;3.70;;
10387;SDS011;5240;51.128;4.566;2022-10-23T05:57:44;5.70;;;3.55;;
10387;SDS011;5240;51.128;4.566;2022-10-23T06:00:11;6.72;;;3.63;;
10387;SDS011;5240;51.128;4.566;2022-10-23T06:02:39;5.43;;;3.63;;
10387;SDS011;5240;51.128;4.566;2022-10-23T06:05:06;6.75;;;3.75;;
10387;SDS011;5240;51.128;4.566;2022-10-23T06:07:34;5.70;;;4.28;;
10387;SDS011;5240;51.128;4.566;2022-10-23T06:10:02;8.85;;;3.75;;
10387;SDS011;5240;51.128;4.566;2022-10-23T06:12:30;6.13;;;3.63;;
10387;SDS011;5240;51.128;4.566;2022-10-23T06:14:57;8.73;;;4.00;;
10387;SDS011;5240;51.128;4.566;2022-10-23T06:17:24;8.57;;;3.90;;
10387;SDS011;5240;51.128;4.566;2022-10-23T06:19:52;11.93;;;4.25;;
10387;SDS011;5240;51.128;4.566;2022-10-23T06:22:24;5.32;;;3.13;;
10387;SDS011;5240;51.128;4.566;2022-10-23T06:24:51;8.02;;;3.63;;
10387;SDS011;5240;51.128;4.566;2022-10-23T06:27:20;11.55;;;6.55;;
10387;SDS011;5240;51.128;4.566;2022-10-23T06:29:47;6.78;;;3.58;;
10387;SDS011;5240;51.128;4.566;2022-10-23T06:32:14;4.95;;;3.40;;
10387;SDS011;5240;51.128;4.566;2022-10-23T06:34:42;7.30;;;3.90;;
10387;SDS011;5240;51.128;4.566;2022-10-23T06:37:09;6.05;;;4.28;;
10387;SDS011;5240;51.128;4.566;2022-10-23T06:39:36;6.35;;;4.00;;
10387;SDS011;5240;51.128;4.566;2022-10-23T06:42:04;5.85;;;3.53;;
10387;SDS011;5240;51.128;4.566;2022-10-23T06:44:33;9.27;;;3.70;;
10387;SDS011;5240;51.128;4.566;2022-10-23T06:47:00;9.75;;;3.95;;
10387;SDS011;5240;51.128;4.566;2022-10-23T06:49:27;5.55;;;3.50;;
10387;SDS011;5240;51.128;4.566;2022-10-23T06:51:54;8.23;;;3.58;;
10387;SDS011;5240;51.128;4.566;2022-10-23T06:54:21;5.35;;;3.45;;
10387;SDS011;5240;51.128;4.566;2022-10-23T06:56:48;7.35;;;3.90;;
10387;SDS011;5240;51.128;4.566;2022-10-23T06:59:15;7.85;;;4.22;;
10387;SDS011;5240;51.128;4.566;2022-10-23T07:01:43;9.32;;;3.72;;
10387;SDS011;5240;51.128;4.566;2022-10-23T07:04:10;5.10;;;3.55;;
10387;SDS011;5240;51.128;4.566;2022-10-23T07:06:38;5.47;;;4.28;;
10387;SDS011;5240;51.128;4.566;2022-10-23T07:09:05;10.00;;;4.60;;
10387;SDS011;5240;51.128;4.566;2022-10-23T07:11:33;7.45;;;4.00;;
10387;SDS011;5240;51.128;4.566;2022-10-23T07:14:00;10.15;;;5.05;;
10387;SDS011;5240;51.128;4.566;2022-10-23T07:16:27;8.15;;;3.78;;
10387;SDS011;5240;51.128;4.566;2022-10-23T07:18:56;8.15;;;3.97;;
10387;SDS011;5240;51.128;4.566;2022-10-23T07:21:25;6.47;;;3.92;;
10387;SDS011;5240;51.128;4.566;2022-10-23T07:23:52;6.40;;;4.30;;
10387;SDS011;5240;51.128;4.566;2022-10-23T07:26:18;6.28;;;4.03;;
10387;SDS011;5240;51.128;4.566;2022-10-23T07:28:46;5.65;;;4.05;;
10387;SDS011;5240;51.128;4.566;2022-10-23T07:31:15;8.60;;;3.92;;
10387;SDS011;5240;51.128;4.566;2022-10-23T07:33:42;9.55;;;4.25;;
10387;SDS011;5240;51.128;4.566;2022-10-23T07:36:11;6.30;;;3.95;;
10387;SDS011;5240;51.128;4.566;2022-10-23T07:38:38;6.72;;;3.65;;
10387;SDS011;5240;51.128;4.566;2022-10-23T07:41:05;7.68;;;3.63;;
10387;SDS011;5240;51.128;4.566;2022-10-23T07:43:32;6.28;;;4.10;;
10387;SDS011;5240;51.128;4.566;2022-10-23T07:46:00;8.93;;;3.80;;
10387;SDS011;5240;51.128;4.566;2022-10-23T07:48:27;5.72;;;4.43;;
10387;SDS011;5240;51.128;4.566;2022-10-23T07:50:56;10.23;;;4.22;;
10387;SDS011;5240;51.128;4.566;2022-10-23T07:53:26;7.70;;;4.10;;
10387;SDS011;5240;51.128;4.566;2022-10-23T07:55:54;9.35;;;3.80;;
10387;SDS011;5240;51.128;4.566;2022-10-23T07:58:22;4.00;;;3.30;;
10387;SDS011;5240;51.128;4.566;2022-10-23T08:00:52;7.35;;;3.67;;
10387;SDS011;5240;51.128;4.566;2022-10-23T08:03:22;5.15;;;3.75;;
10387;SDS011;5240;51.128;4.566;2022-10-23T08:05:50;4.60;;;3.38;;
10387;SDS011;5240;51.128;4.566;2022-10-23T08:08:17;9.45;;;4.00;;
10387;SDS011;5240;51.128;4.566;2022-10-23T08:10:46;7.82;;;3.70;;
10387;SDS011;5240;51.128;4.566;2022-10-23T08:13:13;7.32;;;3.60;;
10387;SDS011;5240;51.128;4.566;2022-10-23T08:15:41;6.32;;;3.90;;
10387;SDS011;5240;51.128;4.566;2022-10-23T08:18:09;9.15;;;3.80;;
10387;SDS011;5240;51.128;4.566;2022-10-23T08:20:39;4.90;;;3.55;;
10387;SDS011;5240;51.128;4.566;2022-10-23T08:23:06;6.28;;;3.65;;
10387;SDS011;5240;51.128;4.566;2022-10-23T08:25:33;5.47;;;3.58;;
10387;SDS011;5240;51.128;4.566;2022-10-23T08:28:02;6.78;;;3.35;;
10387;SDS011;5240;51.128;4.566;2022-10-23T08:30:29;6.65;;;3.80;;
10387;SDS011;5240;51.128;4.566;2022-10-23T08:32:56;8.10;;;3.47;;
10387;SDS011;5240;51.128;4.566;2022-10-23T08:35:23;10.20;;;3.80;;
10387;SDS011;5240;51.128;4.566;2022-10-23T08:37:50;5.65;;;4.00;;
10387;SDS011;5240;51.128;4.566;2022-10-23T08:40:19;6.47;;;4.35;;
10387;SDS011;5240;51.128;4.566;2022-10-23T08:42:50;7.35;;;4.30;;
10387;SDS011;5240;51.128;4.566;2022-10-23T08:45:27;6.80;;;3.88;;
10387;SDS011;5240;51.128;4.566;2022-10-23T08:47:59;6.57;;;4.13;;
10387;SDS011;5240;51.128;4.566;2022-10-23T08:50:34;8.73;;;4.40;;
10387;SDS011;5240;51.128;4.566;2022-10-23T08:53:04;8.18;;;3.78;;
10387;SDS011;5240;51.128;4.566;2022-10-23T08:55:39;8.85;;;3.67;;
10387;SDS011;5240;51.128;4.566;2022-10-23T08:58:11;10.45;;;3.42;;
10387;SDS011;5240;51.128;4.566;2022-10-23T09:00:45;5.65;;;3.47;;
10387;SDS011;5240;51.128;4.566;2022-10-23T09:03:13;5.05;;;3.28;;
10387;SDS011;5240;51.128;4.566;2022-10-23T09:05:44;6.45;;;3.13;;
10387;SDS011;5240;51.128;4.566;2022-10-23T09:08:24;7.25;;;3.40;;
10387;SDS011;5240;51.128;4.566;2022-10-23T09:11:05;5.05;;;3.10;;
10387;SDS011;5240;51.128;4.566;2022-10-23T09:13:44;8.90;;;3.40;;
10387;SDS011;5240;51.128;4.566;2022-10-23T09:16:45;6.72;;;3.08;;
10387;SDS011;5240;51.128;4.566;2022-10-23T09:19:23;5.65;;;3.10;;
10387;SDS011;5240;51.128;4.566;2022-10-23T09:21:53;7.07;;;3.35;;
10387;SDS011;5240;51.128;4.566;2022-10-23T09:24:22;7.10;;;3.08;;
10387;SDS011;5240;51.128;4.566;2022-10-23T09:26:51;6.88;;;3.53;;
10387;SDS011;5240;51.128;4.566;2022-10-23T09:29:22;3.90;;;2.90;;
10387;SDS011;5240;51.128;4.566;2022-10-23T09:31:54;4.97;;;3.05;;
10387;SDS011;5240;51.128;4.566;2022-10-23T09:34:22;6.65;;;3.15;;
10387;SDS011;5240;51.128;4.566;2022-10-23T09:36:51;6.85;;;3.08;;
10387;SDS011;5240;51.128;4.566;2022-10-23T09:39:20;8.50;;;3.40;;
10387;SDS011;5240;51.128;4.566;2022-10-23T09:41:49;4.90;;;2.90;;
10387;SDS011;5240;51.128;4.566;2022-10-23T09:44:17;6.78;;;3.10;;
10387;SDS011;5240;51.128;4.566;2022-10-23T09:46:46;6.25;;;3.10;;
10387;SDS011;5240;51.128;4.566;2022-10-23T09:49:17;6.95;;;3.22;;
10387;SDS011;5240;51.128;4.566;2022-10-23T09:51:50;4.75;;;2.97;;
10387;SDS011;5240;51.128;4.566;2022-10-23T09:54:21;7.57;;;3.00;;
10387;SDS011;5240;51.128;4.566;2022-10-23T09:56:49;6.75;;;2.90;;
10387;SDS011;5240;51.128;4.566;2022-10-23T09:59:20;7.28;;;3.30;;
10387;SDS011;5240;51.128;4.566;2022-10-23T10:01:51;8.18;;;3.47;;
10387;SDS011;5240;51.128;4.566;2022-10-23T10:04:31;4.80;;;3.17;;
10387;SDS011;5240;51.128;4.566;2022-10-23T10:07:03;4.55;;;3.13;;
10387;SDS011;5240;51.128;4.566;2022-10-23T10:09:31;6.97;;;2.88;;
10387;SDS011;5240;51.128;4.566;2022-10-23T10:12:04;6.50;;;2.70;;
10387;SDS011;5240;51.128;4.566;2022-10-23T10:14:47;8.15;;;3.38;;
10387;SDS011;5240;51.128;4.566;2022-10-23T10:17:26;6.75;;;3.25;;
10387;SDS011;5240;51.128;4.566;2022-10-23T10:20:09;10.07;;;6.22;;
10387;SDS011;5240;51.128;4.566;2022-10-23T10:22:57;5.72;;;3.03;;
10387;SDS011;5240;51.128;4.566;2022-10-23T10:25:29;4.15;;;2.97;;
10387;SDS011;5240;51.128;4.566;2022-10-23T10:28:03;6.22;;;2.85;;
10387;SDS011;5240;51.128;4.566;2022-10-23T10:30:44;8.55;;;3.30;;
10387;SDS011;5240;51.128;4.566;2022-10-23T10:33:23;3.85;;;2.90;;
10387;SDS011;5240;51.128;4.566;2022-10-23T10:36:01;7.57;;;4.05;;
10387;SDS011;5240;51.128;4.566;2022-10-23T10:38:42;9.25;;;3.28;;
10387;SDS011;5240;51.128;4.566;2022-10-23T10:41:27;5.45;;;3.10;;
10387;SDS011;5240;51.128;4.566;2022-10-23T10:44:09;5.80;;;3.20;;
10387;SDS011;5240;51.128;4.566;2022-10-23T10:46:58;7.65;;;3.90;;
10387;SDS011;5240;51.128;4.566;2022-10-23T10:49:30;6.55;;;3.13;;
10387;SDS011;5240;51.128;4.566;2022-10-23T10:52:07;5.30;;;2.90;;
10387;SDS011;5240;51.128;4.566;2022-10-23T10:54:42;5.22;;;2.97;;
10387;SDS011;5240;51.128;4.566;2022-10-23T10:57:19;6.45;;;3.20;;
10387;SDS011;5240;51.128;4.566;2022-10-23T10:59:53;7.90;;;3.20;;
10387;SDS011;5240;51.128;4.566;2022-10-23T11:02:26;7.13;;;2.83;;
10387;SDS011;5240;51.128;4.566;2022-10-23T11:04:56;8.23;;;3.15;;
10387;SDS011;5240;51.128;4.566;2022-10-23T11:07:34;6.47;;;2.72;;
10387;SDS011;5240;51.128;4.566;2022-10-23T11:10:12;6.30;;;3.10;;
10387;SDS011;5240;51.128;4.566;2022-10-23T11:12:42;8.15;;;2.97;;
10387;SDS011;5240;51.128;4.566;2022-10-23T11:15:11;4.80;;;3.25;;
10387;SDS011;5240;51.128;4.566;2022-10-23T11:17:41;7.05;;;3.08;;
10387;SDS011;5240;51.128;4.566;2022-10-23T11:20:15;6.75;;;2.95;;
10387;SDS011;5240;51.128;4.566;2022-10-23T11:23:07;7.35;;;3.13;;
10387;SDS011;5240;51.128;4.566;2022-10-23T11:26:04;7.50;;;3.03;;
10387;SDS011;5240;51.128;4.566;2022-10-23T11:28:54;6.70;;;2.80;;
10387;SDS011;5240;51.128;4.566;2022-10-23T11:31:36;4.00;;;3.10;;
10387;SDS011;5240;51.128;4.566;2022-10-23T11:34:17;5.65;;;2.78;;
10387;SDS011;5240;51.128;4.566;2022-10-23T11:37:00;5.28;;;2.85;;
10387;SDS011;5240;51.128;4.566;2022-10-23T11:39:30;4.43;;;2.80;;
10387;SDS011;5240;51.128;4.566;2022-10-23T11:41:59;6.38;;;3.17;;
10387;SDS011;5240;51.128;4.566;2022-10-23T11:44:39;7.00;;;3.05;;
10387;SDS011;5240;51.128;4.566;2022-10-23T11:47:27;6.88;;;3.15;;
10387;SDS011;5240;51.128;4.566;2022-10-23T11:50:22;6.65;;;3.03;;
10387;SDS011;5240;51.128;4.566;2022-10-23T11:52:52;4.55;;;2.60;;
10387;SDS011;5240;51.128;4.566;2022-10-23T11:55:25;8.32;;;2.95;;
10387;SDS011;5240;51.128;4.566;2022-10-23T12:00:48;5.78;;;2.80;;
10387;SDS011;5240;51.128;4.566;2022-10-23T12:03:21;5.50;;;3.03;;
10387;SDS011;5240;51.128;4.566;2022-10-23T12:05:55;9.27;;;3.08;;
10387;SDS011;5240;51.128;4.566;2022-10-23T12:08:26;7.82;;;3.55;;
10387;SDS011;5240;51.128;4.566;2022-10-23T12:10:57;4.38;;;2.92;;
10387;SDS011;5240;51.128;4.566;2022-10-23T12:13:28;5.20;;;2.70;;
10387;SDS011;5240;51.128;4.566;2022-10-23T12:16:10;4.72;;;2.92;;
10387;SDS011;5240;51.128;4.566;2022-10-23T12:18:45;7.55;;;3.30;;
10387;SDS011;5240;51.128;4.566;2022-10-23T12:21:14;7.80;;;3.13;;
10387;SDS011;5240;51.128;4.566;2022-10-23T12:23:53;7.28;;;2.85;;
10387;SDS011;5240;51.128;4.566;2022-10-23T12:26:43;4.78;;;2.97;;
10387;SDS011;5240;51.128;4.566;2022-10-23T12:29:31;7.65;;;2.88;;
10387;SDS011;5240;51.128;4.566;2022-10-23T12:32:14;7.80;;;2.60;;
10387;SDS011;5240;51.128;4.566;2022-10-23T12:34:56;5.97;;;3.13;;
10387;SDS011;5240;51.128;4.566;2022-10-23T12:37:42;3.63;;;2.90;;
10387;SDS011;5240;51.128;4.566;2022-10-23T12:40:19;5.25;;;3.05;;
10387;SDS011;5240;51.128;4.566;2022-10-23T12:42:51;6.68;;;2.95;;
10387;SDS011;5240;51.128;4.566;2022-10-23T12:45:21;7.00;;;2.78;;
10387;SDS011;5240;51.128;4.566;2022-10-23T12:47:50;5.53;;;2.75;;
10387;SDS011;5240;51.128;4.566;2022-10-23T12:50:18;6.97;;;2.83;;
10387;SDS011;5240;51.128;4.566;2022-10-23T12:52:50;4.25;;;2.90;;
10387;SDS011;5240;51.128;4.566;2022-10-23T12:55:18;6.70;;;3.00;;
10387;SDS011;5240;51.128;4.566;2022-10-23T12:57:46;4.38;;;3.08;;
10387;SDS011;5240;51.128;4.566;2022-10-23T13:00:16;3.78;;;2.67;;
10387;SDS011;5240;51.128;4.566;2022-10-23T13:02:44;4.13;;;2.55;;
10387;SDS011;5240;51.128;4.566;2022-10-23T13:05:13;6.07;;;2.65;;
10387;SDS011;5240;51.128;4.566;2022-10-23T13:07:43;9.02;;;3.05;;
10387;SDS011;5240;51.128;4.566;2022-10-23T13:10:13;4.93;;;2.67;;
10387;SDS011;5240;51.128;4.566;2022-10-23T13:12:42;3.83;;;2.38;;
10387;SDS011;5240;51.128;4.566;2022-10-23T13:15:17;9.45;;;2.78;;
10387;SDS011;5240;51.128;4.566;2022-10-23T13:17:46;9.07;;;2.80;;
10387;SDS011;5240;51.128;4.566;2022-10-23T13:20:25;7.57;;;2.70;;
10387;SDS011;5240;51.128;4.566;2022-10-23T13:22:58;8.05;;;3.10;;
10387;SDS011;5240;51.128;4.566;2022-10-23T13:25:33;7.85;;;2.72;;
10387;SDS011;5240;51.128;4.566;2022-10-23T13:28:03;7.95;;;2.75;;
10387;SDS011;5240;51.128;4.566;2022-10-23T13:30:56;7.95;;;2.80;;
10387;SDS011;5240;51.128;4.566;2022-10-23T13:33:31;4.68;;;2.58;;
10387;SDS011;5240;51.128;4.566;2022-10-23T13:36:03;6.47;;;3.00;;
10387;SDS011;5240;51.128;4.566;2022-10-23T13:38:45;3.95;;;2.60;;
10387;SDS011;5240;51.128;4.566;2022-10-23T13:41:13;4.80;;;2.55;;
10387;SDS011;5240;51.128;4.566;2022-10-23T13:43:41;9.93;;;3.28;;
10387;SDS011;5240;51.128;4.566;2022-10-23T13:46:12;6.22;;;2.70;;
10387;SDS011;5240;51.128;4.566;2022-10-23T13:48:40;6.00;;;2.80;;
10387;SDS011;5240;51.128;4.566;2022-10-23T13:51:10;6.90;;;3.10;;
10387;SDS011;5240;51.128;4.566;2022-10-23T13:53:39;4.50;;;2.38;;
10387;SDS011;5240;51.128;4.566;2022-10-23T13:56:07;5.93;;;2.83;;
10387;SDS011;5240;51.128;4.566;2022-10-23T13:58:35;7.57;;;2.78;;
10387;SDS011;5240;51.128;4.566;2022-10-23T14:01:02;3.03;;;2.40;;
10387;SDS011;5240;51.128;4.566;2022-10-23T14:03:31;5.72;;;2.92;;
10387;SDS011;5240;51.128;4.566;2022-10-23T14:05:59;3.67;;;2.78;;
10387;SDS011;5240;51.128;4.566;2022-10-23T14:08:26;6.60;;;2.33;;
10387;SDS011;5240;51.128;4.566;2022-10-23T14:10:53;5.93;;;2.80;;
10387;SDS011;5240;51.128;4.566;2022-10-23T14:13:20;7.57;;;2.78;;
10387;SDS011;5240;51.128;4.566;2022-10-23T14:15:51;6.20;;;2.53;;
10387;SDS011;5240;51.128;4.566;2022-10-23T14:18:19;6.95;;;2.70;;
10387;SDS011;5240;51.128;4.566;2022-10-23T14:20:47;7.47;;;2.65;;
10387;SDS011;5240;51.128;4.566;2022-10-23T14:23:14;4.40;;;2.88;;
10387;SDS011;5240;51.128;4.566;2022-10-23T14:25:41;4.72;;;2.65;;
10387;SDS011;5240;51.128;4.566;2022-10-23T14:28:08;4.55;;;2.67;;
10387;SDS011;5240;51.128;4.566;2022-10-23T14:30:35;7.97;;;2.83;;
10387;SDS011;5240;51.128;4.566;2022-10-23T14:33:02;5.88;;;2.70;;
10387;SDS011;5240;51.128;4.566;2022-10-23T14:35:29;5.50;;;3.00;;
10387;SDS011;5240;51.128;4.566;2022-10-23T14:37:58;11.02;;;2.85;;
10387;SDS011;5240;51.128;4.566;2022-10-23T14:40:25;4.18;;;2.60;;
10387;SDS011;5240;51.128;4.566;2022-10-23T14:42:52;6.10;;;2.65;;
10387;SDS011;5240;51.128;4.566;2022-10-23T14:45:19;4.47;;;2.65;;
10387;SDS011;5240;51.128;4.566;2022-10-23T14:47:46;4.50;;;2.70;;
10387;SDS011;5240;51.128;4.566;2022-10-23T14:50:13;9.68;;;2.83;;
10387;SDS011;5240;51.128;4.566;2022-10-23T14:52:41;6.65;;;2.58;;
10387;SDS011;5240;51.128;4.566;2022-10-23T14:55:09;5.25;;;2.90;;
10387;SDS011;5240;51.128;4.566;2022-10-23T14:57:36;4.35;;;2.75;;
10387;SDS011;5240;51.128;4.566;2022-10-23T15:00:03;4.43;;;2.60;;
10387;SDS011;5240;51.128;4.566;2022-10-23T15:02:31;6.28;;;3.10;;
10387;SDS011;5240;51.128;4.566;2022-10-23T15:04:58;5.70;;;3.05;;
10387;SDS011;5240;51.128;4.566;2022-10-23T15:07:25;7.07;;;2.92;;
10387;SDS011;5240;51.128;4.566;2022-10-23T15:09:52;5.90;;;2.80;;
10387;SDS011;5240;51.128;4.566;2022-10-23T15:12:21;5.47;;;3.17;;
10387;SDS011;5240;51.128;4.566;2022-10-23T15:14:48;4.97;;;3.00;;
10387;SDS011;5240;51.128;4.566;2022-10-23T15:17:15;9.00;;;2.97;;
10387;SDS011;5240;51.128;4.566;2022-10-23T15:19:42;4.63;;;2.95;;
10387;SDS011;5240;51.128;4.566;2022-10-23T15:22:09;6.28;;;3.05;;
10387;SDS011;5240;51.128;4.566;2022-10-23T15:24:36;12.05;;;3.60;;
10387;SDS011;5240;51.128;4.566;2022-10-23T15:27:03;7.45;;;3.40;;
10387;SDS011;5240;51.128;4.566;2022-10-23T15:29:31;4.97;;;3.28;;